sensor_id;sensor_type;location;lat;lon;timestamp;pressure;altitude;pressure_sealevel;temperature;humidity
53041;BME280;39326;42.650;23.248;2023-05-22T00:00:30;92354.59;;;12.26;77.83
53041;BME280;39326;42.650;23.248;2023-05-22T00:02:56;92359.19;;;12.25;77.97
53041;BME280;39326;42.650;23.248;2023-05-22T00:05:22;92348.16;;;12.19;78.18
53041;BME280;39326;42.650;23.248;2023-05-22T00:07:48;92350.81;;;12.23;78.20
53041;BME280;39326;42.650;23.248;2023-05-22T00:10:13;92346.25;;;12.20;78.38
53041;BME280;39326;42.650;23.248;2023-05-22T00:12:39;92337.94;;;12.11;79.19
53041;BME280;39326;42.650;23.248;2023-05-22T00:15:04;92338.00;;;12.04;80.00
53041;BME280;39326;42.650;23.248;2023-05-22T00:17:30;92341.88;;;11.99;80.19
53041;BME280;39326;42.650;23.248;2023-05-22T00:19:56;92343.03;;;11.98;80.41
53041;BME280;39326;42.650;23.248;2023-05-22T00:22:27;92341.47;;;12.01;80.54
53041;BME280;39326;42.650;23.248;2023-05-22T00:24:56;92342.22;;;12.01;80.90
53041;BME280;39326;42.650;23.248;2023-05-22T00:27:21;92344.56;;;11.95;81.63
53041;BME280;39326;42.650;23.248;2023-05-22T00:29:47;92340.03;;;11.89;82.09
53041;BME280;39326;42.650;23.248;2023-05-22T00:32:12;92343.47;;;11.89;82.15
53041;BME280;39326;42.650;23.248;2023-05-22T00:34:38;92345.38;;;11.89;81.88
53041;BME280;39326;42.650;23.248;2023-05-22T00:37:03;92347.13;;;12.06;81.03
53041;BME280;39326;42.650;23.248;2023-05-22T00:39:29;92341.19;;;11.91;82.13
53041;BME280;39326;42.650;23.248;2023-05-22T00:41:54;92342.91;;;12.09;80.93
53041;BME280;39326;42.650;23.248;2023-05-22T00:44:20;92346.75;;;12.08;81.07
53041;BME280;39326;42.650;23.248;2023-05-22T00:46:47;92349.47;;;12.01;81.20
53041;BME280;39326;42.650;23.248;2023-05-22T00:49:12;92354.81;;;12.01;81.21
53041;BME280;39326;42.650;23.248;2023-05-22T00:51:37;92361.63;;;12.09;80.62
53041;BME280;39326;42.650;23.248;2023-05-22T00:54:04;92361.94;;;12.14;80.01
53041;BME280;39326;42.650;23.248;2023-05-22T00:56:29;92358.63;;;12.03;80.84
53041;BME280;39326;42.650;23.248;2023-05-22T00:58:55;92354.38;;;12.09;80.42
53041;BME280;39326;42.650;23.248;2023-05-22T01:01:20;92350.56;;;12.10;80.01
53041;BME280;39326;42.650;23.248;2023-05-22T01:03:49;92358.19;;;12.08;80.01
53041;BME280;39326;42.650;23.248;2023-05-22T01:06:16;92349.41;;;12.08;79.93
53041;BME280;39326;42.650;23.248;2023-05-22T01:08:46;92347.56;;;12.01;80.30
53041;BME280;39326;42.650;23.248;2023-05-22T01:11:17;92355.19;;;12.03;80.49
53041;BME280;39326;42.650;23.248;2023-05-22T01:14:01;92350.97;;;12.05;80.47
53041;BME280;39326;42.650;23.248;2023-05-22T01:19:50;92353.72;;;11.98;81.05
53041;BME280;39326;42.650;23.248;2023-05-22T01:31:16;92338.94;;;11.86;80.96
53041;BME280;39326;42.650;23.248;2023-05-22T01:33:48;92345.81;;;11.84;81.10
53041;BME280;39326;42.650;23.248;2023-05-22T01:36:19;92337.84;;;11.80;81.29
53041;BME280;39326;42.650;23.248;2023-05-22T01:38:46;92342.03;;;11.81;81.01
53041;BME280;39326;42.650;23.248;2023-05-22T01:41:12;92335.53;;;11.82;80.99
53041;BME280;39326;42.650;23.248;2023-05-22T01:43:38;92333.66;;;11.76;81.39
53041;BME280;39326;42.650;23.248;2023-05-22T01:46:04;92330.25;;;11.75;81.17
53041;BME280;39326;42.650;23.248;2023-05-22T01:48:31;92329.88;;;11.73;81.07
53041;BME280;39326;42.650;23.248;2023-05-22T01:51:01;92328.72;;;11.74;81.29
53041;BME280;39326;42.650;23.248;2023-05-22T01:53:34;92342.09;;;11.74;81.25
53041;BME280;39326;42.650;23.248;2023-05-22T01:56:09;92340.16;;;11.75;81.05
53041;BME280;39326;42.650;23.248;2023-05-22T01:58:44;92339.81;;;11.73;81.25
53041;BME280;39326;42.650;23.248;2023-05-22T02:01:13;92336.03;;;11.66;81.58
53041;BME280;39326;42.650;23.248;2023-05-22T02:03:39;92334.50;;;11.69;81.35
53041;BME280;39326;42.650;23.248;2023-05-22T02:06:08;92332.63;;;11.66;81.44
53041;BME280;39326;42.650;23.248;2023-05-22T02:08:36;92334.91;;;11.64;81.64
53041;BME280;39326;42.650;23.248;2023-05-22T02:11:03;92329.97;;;11.62;81.43
53041;BME280;39326;42.650;23.248;2023-05-22T02:13:29;92336.06;;;11.63;81.31
53041;BME280;39326;42.650;23.248;2023-05-22T02:15:56;92331.91;;;11.58;81.75
53041;BME280;39326;42.650;23.248;2023-05-22T02:18:27;92339.53;;;11.60;81.58
53041;BME280;39326;42.650;23.248;2023-05-22T02:20:55;92337.63;;;11.57;81.92
53041;BME280;39326;42.650;23.248;2023-05-22T02:23:21;92333.47;;;11.52;81.68
53041;BME280;39326;42.650;23.248;2023-05-22T02:25:46;92334.63;;;11.51;81.80
53041;BME280;39326;42.650;23.248;2023-05-22T02:28:12;92337.72;;;11.46;82.27
53041;BME280;39326;42.650;23.248;2023-05-22T02:30:37;92333.50;;;11.49;82.28
53041;BME280;39326;42.650;23.248;2023-05-22T02:33:03;92326.63;;;11.51;82.00
53041;BME280;39326;42.650;23.248;2023-05-22T02:35:30;92328.16;;;11.49;81.90
53041;BME280;39326;42.650;23.248;2023-05-22T02:37:56;92334.28;;;11.49;82.17
53041;BME280;39326;42.650;23.248;2023-05-22T02:40:21;92328.16;;;11.49;82.25
53041;BME280;39326;42.650;23.248;2023-05-22T02:42:47;92336.59;;;11.43;82.20
53041;BME280;39326;42.650;23.248;2023-05-22T02:45:13;92327.50;;;11.34;82.31
53041;BME280;39326;42.650;23.248;2023-05-22T02:47:39;92321.00;;;11.31;82.44
53041;BME280;39326;42.650;23.248;2023-05-22T02:50:04;92320.66;;;11.26;82.49
53041;BME280;39326;42.650;23.248;2023-05-22T02:52:30;92326.41;;;11.21;82.70
53041;BME280;39326;42.650;23.248;2023-05-22T02:54:55;92316.13;;;11.19;83.20
53041;BME280;39326;42.650;23.248;2023-05-22T02:57:21;92324.56;;;11.14;83.16
53041;BME280;39326;42.650;23.248;2023-05-22T02:59:46;92322.28;;;11.12;83.36
53041;BME280;39326;42.650;23.248;2023-05-22T03:02:12;92324.59;;;11.07;83.39
53041;BME280;39326;42.650;23.248;2023-05-22T03:04:38;92320.41;;;11.06;83.71
53041;BME280;39326;42.650;23.248;2023-05-22T03:07:03;92320.47;;;10.99;84.06
53041;BME280;39326;42.650;23.248;2023-05-22T03:09:31;92320.81;;;11.01;84.49
53041;BME280;39326;42.650;23.248;2023-05-22T03:11:57;92325.44;;;10.93;84.60
53041;BME280;39326;42.650;23.248;2023-05-22T03:14:22;92330.03;;;10.96;84.63
53041;BME280;39326;42.650;23.248;2023-05-22T03:16:48;92331.91;;;10.99;84.55
53041;BME280;39326;42.650;23.248;2023-05-22T03:19:15;92327.31;;;11.00;84.73
53041;BME280;39326;42.650;23.248;2023-05-22T03:21:41;92330.03;;;10.96;84.99
53041;BME280;39326;42.650;23.248;2023-05-22T03:24:10;92336.81;;;11.04;85.16
53041;BME280;39326;42.650;23.248;2023-05-22T03:26:37;92325.41;;;11.04;85.27
53041;BME280;39326;42.650;23.248;2023-05-22T03:29:02;92333.75;;;11.06;85.44
53041;BME280;39326;42.650;23.248;2023-05-22T03:31:28;92331.84;;;11.10;85.48
53041;BME280;39326;42.650;23.248;2023-05-22T03:33:55;92334.81;;;11.19;85.16
53041;BME280;39326;42.650;23.248;2023-05-22T03:36:21;92334.41;;;11.24;84.91
53041;BME280;39326;42.650;23.248;2023-05-22T03:38:47;92328.25;;;11.31;85.07
53041;BME280;39326;42.650;23.248;2023-05-22T03:41:13;92326.75;;;11.30;85.22
53041;BME280;39326;42.650;23.248;2023-05-22T03:43:38;92329.78;;;11.32;85.19
53041;BME280;39326;42.650;23.248;2023-05-22T03:46:04;92325.53;;;11.38;85.21
53041;BME280;39326;42.650;23.248;2023-05-22T03:48:29;92331.63;;;11.46;85.12
53041;BME280;39326;42.650;23.248;2023-05-22T03:50:55;92332.38;;;11.46;85.70
53041;BME280;39326;42.650;23.248;2023-05-22T03:53:20;92331.25;;;11.47;85.44
53041;BME280;39326;42.650;23.248;2023-05-22T03:55:46;92330.78;;;11.52;85.16
53041;BME280;39326;42.650;23.248;2023-05-22T03:58:11;92327.00;;;11.53;85.59
53041;BME280;39326;42.650;23.248;2023-05-22T04:00:37;92328.84;;;11.60;85.24
53041;BME280;39326;42.650;23.248;2023-05-22T04:03:03;92333.03;;;11.61;85.67
53041;BME280;39326;42.650;23.248;2023-05-22T04:05:28;92332.22;;;11.67;85.33
53041;BME280;39326;42.650;23.248;2023-05-22T04:07:55;92333.81;;;11.58;86.13
53041;BME280;39326;42.650;23.248;2023-05-22T04:10:21;92330.66;;;11.70;85.20
53041;BME280;39326;42.650;23.248;2023-05-22T04:12:48;92334.81;;;11.75;84.97
53041;BME280;39326;42.650;23.248;2023-05-22T04:15:13;92335.91;;;11.84;84.71
53041;BME280;39326;42.650;23.248;2023-05-22T04:17:39;92338.09;;;11.93;84.66
53041;BME280;39326;42.650;23.248;2023-05-22T04:20:06;92336.94;;;11.97;84.49
53041;BME280;39326;42.650;23.248;2023-05-22T04:22:32;92335.44;;;11.93;84.66
53041;BME280;39326;42.650;23.248;2023-05-22T04:24:57;92342.56;;;12.07;84.08
53041;BME280;39326;42.650;23.248;2023-05-22T04:27:23;92340.22;;;12.09;83.80
53041;BME280;39326;42.650;23.248;2023-05-22T04:29:49;92343.63;;;12.13;83.77
53041;BME280;39326;42.650;23.248;2023-05-22T04:32:15;92343.22;;;12.14;83.71
53041;BME280;39326;42.650;23.248;2023-05-22T04:34:44;92344.31;;;12.24;83.01
53041;BME280;39326;42.650;23.248;2023-05-22T04:37:10;92342.72;;;12.30;83.01
53041;BME280;39326;42.650;23.248;2023-05-22T04:39:35;92343.78;;;12.36;82.83
53041;BME280;39326;42.650;23.248;2023-05-22T04:42:01;92345.97;;;12.45;82.08
53041;BME280;39326;42.650;23.248;2023-05-22T04:44:31;92352.38;;;12.55;81.67
53041;BME280;39326;42.650;23.248;2023-05-22T04:46:59;92356.28;;;12.46;81.65
53041;BME280;39326;42.650;23.248;2023-05-22T04:49:25;92348.19;;;12.54;80.80
53041;BME280;39326;42.650;23.248;2023-05-22T04:51:50;92354.22;;;12.61;80.37
53041;BME280;39326;42.650;23.248;2023-05-22T04:54:15;92354.91;;;12.65;80.53
53041;BME280;39326;42.650;23.248;2023-05-22T04:56:41;92347.31;;;12.67;81.15
53041;BME280;39326;42.650;23.248;2023-05-22T04:59:06;92350.22;;;12.76;80.69
53041;BME280;39326;42.650;23.248;2023-05-22T05:01:33;92355.81;;;12.89;80.44
53041;BME280;39326;42.650;23.248;2023-05-22T05:03:59;92353.44;;;12.95;79.56
53041;BME280;39326;42.650;23.248;2023-05-22T05:06:24;92358.16;;;13.14;78.66
53041;BME280;39326;42.650;23.248;2023-05-22T05:08:50;92352.19;;;13.03;78.75
53041;BME280;39326;42.650;23.248;2023-05-22T05:11:17;92362.00;;;13.13;78.24
53041;BME280;39326;42.650;23.248;2023-05-22T05:13:42;92364.03;;;13.32;78.35
53041;BME280;39326;42.650;23.248;2023-05-22T05:16:08;92359.94;;;13.51;77.87
53041;BME280;39326;42.650;23.248;2023-05-22T05:18:33;92361.41;;;13.56;76.83
53041;BME280;39326;42.650;23.248;2023-05-22T05:20:59;92365.81;;;13.70;76.42
53041;BME280;39326;42.650;23.248;2023-05-22T05:23:24;92363.44;;;13.75;76.77
53041;BME280;39326;42.650;23.248;2023-05-22T05:25:50;92358.31;;;13.84;76.71
53041;BME280;39326;42.650;23.248;2023-05-22T05:28:15;92369.19;;;14.01;76.11
53041;BME280;39326;42.650;23.248;2023-05-22T05:30:41;92370.34;;;14.00;75.69
53041;BME280;39326;42.650;23.248;2023-05-22T05:33:06;92368.34;;;14.04;74.88
53041;BME280;39326;42.650;23.248;2023-05-22T05:35:31;92361.59;;;14.19;74.19
53041;BME280;39326;42.650;23.248;2023-05-22T05:37:57;92366.53;;;14.21;73.92
53041;BME280;39326;42.650;23.248;2023-05-22T05:40:23;92365.19;;;14.32;74.18
53041;BME280;39326;42.650;23.248;2023-05-22T05:42:48;92357.13;;;14.32;73.87
53041;BME280;39326;42.650;23.248;2023-05-22T05:45:15;92366.66;;;14.57;73.28
53041;BME280;39326;42.650;23.248;2023-05-22T05:47:40;92372.31;;;14.62;73.01
53041;BME280;39326;42.650;23.248;2023-05-22T05:50:06;92368.19;;;14.78;73.08
53041;BME280;39326;42.650;23.248;2023-05-22T05:52:32;92366.41;;;14.71;72.17
53041;BME280;39326;42.650;23.248;2023-05-22T05:55:00;92365.34;;;14.85;71.60
53041;BME280;39326;42.650;23.248;2023-05-22T05:57:27;92373.50;;;15.01;70.82
53041;BME280;39326;42.650;23.248;2023-05-22T05:59:52;92370.28;;;14.90;70.68
53041;BME280;39326;42.650;23.248;2023-05-22T06:02:18;92373.66;;;14.94;70.46
53041;BME280;39326;42.650;23.248;2023-05-22T06:04:43;92369.97;;;15.04;70.58
53041;BME280;39326;42.650;23.248;2023-05-22T06:07:13;92354.91;;;15.10;70.07
53041;BME280;39326;42.650;23.248;2023-05-22T06:09:38;92362.81;;;15.17;70.07
53041;BME280;39326;42.650;23.248;2023-05-22T06:12:04;92359.25;;;15.04;69.70
53041;BME280;39326;42.650;23.248;2023-05-22T06:14:30;92374.06;;;15.12;69.64
53041;BME280;39326;42.650;23.248;2023-05-22T06:16:55;92376.94;;;15.22;68.76
53041;BME280;39326;42.650;23.248;2023-05-22T06:19:21;92372.84;;;15.33;68.54
53041;BME280;39326;42.650;23.248;2023-05-22T06:21:46;92376.38;;;15.30;69.25
53041;BME280;39326;42.650;23.248;2023-05-22T06:24:12;92377.41;;;15.36;68.43
53041;BME280;39326;42.650;23.248;2023-05-22T06:26:37;92378.53;;;15.19;67.82
53041;BME280;39326;42.650;23.248;2023-05-22T06:29:03;92373.22;;;15.15;67.68
53041;BME280;39326;42.650;23.248;2023-05-22T06:31:29;92379.34;;;15.16;67.60
53041;BME280;39326;42.650;23.248;2023-05-22T06:33:56;92375.69;;;15.26;67.46
53041;BME280;39326;42.650;23.248;2023-05-22T06:36:21;92374.97;;;15.06;68.27
53041;BME280;39326;42.650;23.248;2023-05-22T06:38:47;92370.41;;;15.03;67.57
53041;BME280;39326;42.650;23.248;2023-05-22T06:41:13;92375.63;;;15.10;66.49
53041;BME280;39326;42.650;23.248;2023-05-22T06:43:39;92377.63;;;15.26;66.64
53041;BME280;39326;42.650;23.248;2023-05-22T06:46:04;92374.28;;;15.38;66.02
53041;BME280;39326;42.650;23.248;2023-05-22T06:48:34;92383.13;;;15.55;65.80
53041;BME280;39326;42.650;23.248;2023-05-22T06:51:00;92369.78;;;15.51;65.76
53041;BME280;39326;42.650;23.248;2023-05-22T06:53:25;92375.84;;;15.55;65.28
53041;BME280;39326;42.650;23.248;2023-05-22T06:55:51;92376.53;;;15.76;64.29
53041;BME280;39326;42.650;23.248;2023-05-22T06:58:16;92375.81;;;16.08;64.01
53041;BME280;39326;42.650;23.248;2023-05-22T07:00:42;92372.56;;;16.29;63.77
53041;BME280;39326;42.650;23.248;2023-05-22T07:03:08;92369.69;;;16.36;64.53
53041;BME280;39326;42.650;23.248;2023-05-22T07:05:33;92381.94;;;16.70;63.59
53041;BME280;39326;42.650;23.248;2023-05-22T07:07:59;92380.06;;;16.67;62.82
53041;BME280;39326;42.650;23.248;2023-05-22T07:10:25;92377.94;;;16.45;61.58
53041;BME280;39326;42.650;23.248;2023-05-22T07:12:52;92371.53;;;16.56;62.18
53041;BME280;39326;42.650;23.248;2023-05-22T07:15:17;92371.81;;;16.74;62.34
53041;BME280;39326;42.650;23.248;2023-05-22T07:17:43;92374.72;;;16.96;62.00
53041;BME280;39326;42.650;23.248;2023-05-22T07:20:08;92368.84;;;17.26;60.04
53041;BME280;39326;42.650;23.248;2023-05-22T07:22:36;92372.13;;;17.47;57.87
53041;BME280;39326;42.650;23.248;2023-05-22T07:25:02;92374.81;;;17.47;57.40
53041;BME280;39326;42.650;23.248;2023-05-22T07:27:28;92378.38;;;17.44;57.35
53041;BME280;39326;42.650;23.248;2023-05-22T07:29:53;92372.19;;;17.30;57.39
53041;BME280;39326;42.650;23.248;2023-05-22T07:32:19;92372.03;;;17.50;56.64
53041;BME280;39326;42.650;23.248;2023-05-22T07:34:44;92371.78;;;17.32;55.92
53041;BME280;39326;42.650;23.248;2023-05-22T07:37:11;92376.09;;;17.68;55.26
53041;BME280;39326;42.650;23.248;2023-05-22T07:39:37;92372.44;;;17.74;56.21
53041;BME280;39326;42.650;23.248;2023-05-22T07:42:02;92374.53;;;17.83;55.83
53041;BME280;39326;42.650;23.248;2023-05-22T07:44:29;92368.13;;;17.64;55.74
53041;BME280;39326;42.650;23.248;2023-05-22T07:46:55;92374.28;;;17.77;55.38
53041;BME280;39326;42.650;23.248;2023-05-22T07:49:21;92371.19;;;17.79;55.17
53041;BME280;39326;42.650;23.248;2023-05-22T07:51:47;92368.13;;;18.02;55.25
53041;BME280;39326;42.650;23.248;2023-05-22T07:54:13;92368.91;;;17.90;53.59
53041;BME280;39326;42.650;23.248;2023-05-22T07:56:42;92368.03;;;17.93;54.47
53041;BME280;39326;42.650;23.248;2023-05-22T07:59:08;92371.25;;;18.13;55.88
53041;BME280;39326;42.650;23.248;2023-05-22T08:01:36;92371.09;;;18.30;54.92
53041;BME280;39326;42.650;23.248;2023-05-22T08:04:02;92370.69;;;18.31;53.91
53041;BME280;39326;42.650;23.248;2023-05-22T08:06:28;92375.91;;;18.13;53.75
53041;BME280;39326;42.650;23.248;2023-05-22T08:08:54;92372.88;;;18.11;54.13
53041;BME280;39326;42.650;23.248;2023-05-22T08:11:19;92366.91;;;18.29;54.53
53041;BME280;39326;42.650;23.248;2023-05-22T08:13:45;92373.41;;;18.66;54.07
53041;BME280;39326;42.650;23.248;2023-05-22T08:16:11;92374.31;;;18.85;53.36
53041;BME280;39326;42.650;23.248;2023-05-22T08:18:36;92369.72;;;19.16;50.92
53041;BME280;39326;42.650;23.248;2023-05-22T08:21:02;92373.09;;;19.30;50.78
53041;BME280;39326;42.650;23.248;2023-05-22T08:23:27;92368.25;;;19.25;49.38
53041;BME280;39326;42.650;23.248;2023-05-22T08:25:54;92364.31;;;19.38;50.23
53041;BME280;39326;42.650;23.248;2023-05-22T08:28:19;92370.19;;;19.46;49.30
53041;BME280;39326;42.650;23.248;2023-05-22T08:30:45;92376.56;;;19.83;49.67
53041;BME280;39326;42.650;23.248;2023-05-22T08:33:10;92362.03;;;19.68;47.71
53041;BME280;39326;42.650;23.248;2023-05-22T08:35:36;92376.47;;;20.05;47.75
53041;BME280;39326;42.650;23.248;2023-05-22T08:38:01;92370.19;;;20.17;45.50
53041;BME280;39326;42.650;23.248;2023-05-22T08:40:36;92363.22;;;20.07;43.48
53041;BME280;39326;42.650;23.248;2023-05-22T08:43:03;92372.56;;;20.06;45.23
53041;BME280;39326;42.650;23.248;2023-05-22T08:45:29;92368.50;;;20.01;46.31
53041;BME280;39326;42.650;23.248;2023-05-22T08:47:59;92371.03;;;19.96;47.51
53041;BME280;39326;42.650;23.248;2023-05-22T08:50:29;92360.09;;;20.18;45.85
53041;BME280;39326;42.650;23.248;2023-05-22T08:52:55;92364.31;;;20.19;46.43
53041;BME280;39326;42.650;23.248;2023-05-22T08:55:24;92358.28;;;19.65;45.04
53041;BME280;39326;42.650;23.248;2023-05-22T08:57:50;92363.22;;;19.58;45.28
53041;BME280;39326;42.650;23.248;2023-05-22T09:00:16;92365.84;;;19.80;46.32
53041;BME280;39326;42.650;23.248;2023-05-22T09:02:42;92365.75;;;19.92;46.23
53041;BME280;39326;42.650;23.248;2023-05-22T09:05:08;92357.44;;;19.78;45.97
53041;BME280;39326;42.650;23.248;2023-05-22T09:07:34;92362.84;;;19.78;45.18
53041;BME280;39326;42.650;23.248;2023-05-22T09:10:00;92362.28;;;19.30;45.59
53041;BME280;39326;42.650;23.248;2023-05-22T09:12:30;92356.44;;;19.53;45.06
53041;BME280;39326;42.650;23.248;2023-05-22T09:14:56;92358.97;;;19.88;44.28
53041;BME280;39326;42.650;23.248;2023-05-22T09:17:27;92349.72;;;20.16;43.46
53041;BME280;39326;42.650;23.248;2023-05-22T09:19:52;92346.16;;;20.38;44.39
53041;BME280;39326;42.650;23.248;2023-05-22T09:22:18;92345.88;;;20.63;43.10
53041;BME280;39326;42.650;23.248;2023-05-22T09:24:44;92347.53;;;20.97;41.45
53041;BME280;39326;42.650;23.248;2023-05-22T09:27:11;92349.81;;;21.17;40.22
53041;BME280;39326;42.650;23.248;2023-05-22T09:30:06;92342.88;;;21.07;40.95
53041;BME280;39326;42.650;23.248;2023-05-22T09:32:32;92347.97;;;21.05;39.43
53041;BME280;39326;42.650;23.248;2023-05-22T09:35:01;92338.06;;;21.02;39.62
53041;BME280;39326;42.650;23.248;2023-05-22T09:37:34;92345.41;;;21.01;38.52
53041;BME280;39326;42.650;23.248;2023-05-22T09:40:06;92341.50;;;20.93;38.68
53041;BME280;39326;42.650;23.248;2023-05-22T09:42:33;92348.91;;;21.02;38.67
53041;BME280;39326;42.650;23.248;2023-05-22T09:45:05;92348.88;;;21.29;39.96
53041;BME280;39326;42.650;23.248;2023-05-22T09:47:32;92350.53;;;21.36;39.17
53041;BME280;39326;42.650;23.248;2023-05-22T09:50:04;92349.03;;;20.98;37.29
53041;BME280;39326;42.650;23.248;2023-05-22T09:52:32;92344.38;;;20.80;37.73
53041;BME280;39326;42.650;23.248;2023-05-22T09:55:02;92357.34;;;20.58;39.05
53041;BME280;39326;42.650;23.248;2023-05-22T09:57:30;92351.78;;;20.52;40.08
53041;BME280;39326;42.650;23.248;2023-05-22T09:59:58;92355.16;;;20.25;39.60
53041;BME280;39326;42.650;23.248;2023-05-22T10:02:26;92354.97;;;20.20;40.86
53041;BME280;39326;42.650;23.248;2023-05-22T10:04:52;92348.75;;;19.92;40.89
53041;BME280;39326;42.650;23.248;2023-05-22T10:07:21;92356.06;;;19.82;40.52
53041;BME280;39326;42.650;23.248;2023-05-22T10:09:53;92352.53;;;19.54;41.12
53041;BME280;39326;42.650;23.248;2023-05-22T10:12:22;92357.69;;;19.39;41.30
53041;BME280;39326;42.650;23.248;2023-05-22T10:14:48;92357.31;;;19.50;41.93
53041;BME280;39326;42.650;23.248;2023-05-22T10:17:14;92348.56;;;19.46;43.76
53041;BME280;39326;42.650;23.248;2023-05-22T10:19:41;92358.78;;;19.20;44.55
53041;BME280;39326;42.650;23.248;2023-05-22T10:22:07;92360.47;;;19.05;45.37
53041;BME280;39326;42.650;23.248;2023-05-22T10:24:33;92359.72;;;19.04;46.86
53041;BME280;39326;42.650;23.248;2023-05-22T10:26:58;92367.44;;;18.93;47.38
53041;BME280;39326;42.650;23.248;2023-05-22T10:29:36;92359.53;;;18.99;47.54
53041;BME280;39326;42.650;23.248;2023-05-22T10:32:26;92367.78;;;18.95;47.76
53041;BME280;39326;42.650;23.248;2023-05-22T10:37:35;92364.00;;;18.92;47.07
53041;BME280;39326;42.650;23.248;2023-05-22T10:40:06;92363.19;;;18.83;46.73
53041;BME280;39326;42.650;23.248;2023-05-22T10:42:33;92369.69;;;18.38;48.10
53041;BME280;39326;42.650;23.248;2023-05-22T10:45:02;92369.53;;;18.20;48.52
53041;BME280;39326;42.650;23.248;2023-05-22T10:47:28;92375.47;;;17.76;51.04
53041;BME280;39326;42.650;23.248;2023-05-22T10:50:06;92385.25;;;17.19;58.92
53041;BME280;39326;42.650;23.248;2023-05-22T10:52:32;92380.00;;;16.70;60.63
53041;BME280;39326;42.650;23.248;2023-05-22T10:55:05;92376.44;;;16.28;64.97
53041;BME280;39326;42.650;23.248;2023-05-22T10:57:31;92383.84;;;16.40;64.12
53041;BME280;39326;42.650;23.248;2023-05-22T11:00:09;92384.59;;;16.41;68.32
53041;BME280;39326;42.650;23.248;2023-05-22T11:02:46;92398.47;;;16.56;68.03
53041;BME280;39326;42.650;23.248;2023-05-22T11:07:43;92379.38;;;16.50;68.24
53041;BME280;39326;42.650;23.248;2023-05-22T11:10:08;92380.22;;;16.47;67.25
53041;BME280;39326;42.650;23.248;2023-05-22T11:12:34;92385.84;;;16.52;67.19
53041;BME280;39326;42.650;23.248;2023-05-22T11:15:08;92380.63;;;16.62;68.85
53041;BME280;39326;42.650;23.248;2023-05-22T11:17:40;92370.78;;;16.84;66.62
53041;BME280;39326;42.650;23.248;2023-05-22T11:20:20;92366.63;;;16.96;67.53
53041;BME280;39326;42.650;23.248;2023-05-22T11:25:44;92355.78;;;17.12;66.82
53041;BME280;39326;42.650;23.248;2023-05-22T11:28:10;92358.50;;;17.12;63.84
53041;BME280;39326;42.650;23.248;2023-05-22T11:30:36;92355.16;;;17.33;64.48
53041;BME280;39326;42.650;23.248;2023-05-22T11:33:03;92359.81;;;17.58;66.76
53041;BME280;39326;42.650;23.248;2023-05-22T11:35:30;92360.47;;;17.75;65.56
53041;BME280;39326;42.650;23.248;2023-05-22T11:37:55;92362.75;;;17.64;65.00
53041;BME280;39326;42.650;23.248;2023-05-22T11:40:22;92383.78;;;17.69;66.93
53041;BME280;39326;42.650;23.248;2023-05-22T11:42:54;92415.69;;;17.45;71.23
53041;BME280;39326;42.650;23.248;2023-05-22T11:45:20;92421.63;;;16.82;71.96
53041;BME280;39326;42.650;23.248;2023-05-22T11:47:46;92414.94;;;15.76;71.69
53041;BME280;39326;42.650;23.248;2023-05-22T11:50:12;92401.06;;;15.41;71.63
53041;BME280;39326;42.650;23.248;2023-05-22T11:52:40;92410.50;;;15.13;72.06
53041;BME280;39326;42.650;23.248;2023-05-22T11:55:07;92409.13;;;15.05;72.58
53041;BME280;39326;42.650;23.248;2023-05-22T11:57:33;92400.75;;;14.80;74.54
53041;BME280;39326;42.650;23.248;2023-05-22T12:00:03;92404.94;;;14.61;75.22
53041;BME280;39326;42.650;23.248;2023-05-22T12:02:30;92401.44;;;14.41;75.42
53041;BME280;39326;42.650;23.248;2023-05-22T12:04:57;92404.69;;;14.32;74.90
53041;BME280;39326;42.650;23.248;2023-05-22T12:07:23;92402.81;;;14.05;77.03
53041;BME280;39326;42.650;23.248;2023-05-22T12:09:51;92396.13;;;14.17;76.22
53041;BME280;39326;42.650;23.248;2023-05-22T12:12:16;92400.66;;;14.20;76.28
53041;BME280;39326;42.650;23.248;2023-05-22T12:14:45;92387.81;;;14.31;75.86
53041;BME280;39326;42.650;23.248;2023-05-22T12:17:12;92386.81;;;14.22;74.16
53041;BME280;39326;42.650;23.248;2023-05-22T12:19:41;92388.47;;;14.16;75.07
53041;BME280;39326;42.650;23.248;2023-05-22T12:22:10;92391.84;;;14.20;73.89
53041;BME280;39326;42.650;23.248;2023-05-22T12:24:37;92388.00;;;13.97;73.54
53041;BME280;39326;42.650;23.248;2023-05-22T12:27:07;92386.31;;;14.07;73.23
53041;BME280;39326;42.650;23.248;2023-05-22T12:29:33;92377.72;;;14.16;74.20
53041;BME280;39326;42.650;23.248;2023-05-22T12:32:04;92373.03;;;14.23;73.12
53041;BME280;39326;42.650;23.248;2023-05-22T12:34:34;92373.66;;;14.31;72.01
53041;BME280;39326;42.650;23.248;2023-05-22T12:37:00;92367.16;;;14.28;72.98
53041;BME280;39326;42.650;23.248;2023-05-22T12:39:27;92370.13;;;14.34;74.40
53041;BME280;39326;42.650;23.248;2023-05-22T12:41:52;92362.03;;;14.37;75.08
53041;BME280;39326;42.650;23.248;2023-05-22T12:44:18;92362.47;;;14.36;76.39
53041;BME280;39326;42.650;23.248;2023-05-22T12:46:43;92362.19;;;14.50;76.78
53041;BME280;39326;42.650;23.248;2023-05-22T12:49:09;92369.78;;;14.55;76.69
53041;BME280;39326;42.650;23.248;2023-05-22T12:51:35;92361.59;;;14.62;78.74
53041;BME280;39326;42.650;23.248;2023-05-22T12:54:01;92364.09;;;14.93;78.80
53041;BME280;39326;42.650;23.248;2023-05-22T12:56:30;92360.91;;;14.98;81.47
53041;BME280;39326;42.650;23.248;2023-05-22T12:58:56;92369.97;;;15.24;82.27
53041;BME280;39326;42.650;23.248;2023-05-22T13:01:22;92362.38;;;15.39;82.80
53041;BME280;39326;42.650;23.248;2023-05-22T13:03:50;92359.81;;;15.68;82.58
53041;BME280;39326;42.650;23.248;2023-05-22T13:06:15;92356.47;;;15.80;82.52
53041;BME280;39326;42.650;23.248;2023-05-22T13:08:41;92368.34;;;15.99;82.40